sensor_id;sensor_type;location;lat;lon;timestamp;pressure;altitude;pressure_sealevel;temperature
15575;BMP180;7888;46.748;8.102;2022-10-16T00:01:25;94121.00;;;18.20
15575;BMP180;7888;46.748;8.102;2022-10-16T00:03:52;94121.00;;;18.20
15575;BMP180;7888;46.748;8.102;2022-10-16T00:06:20;94129.00;;;18.20
15575;BMP180;7888;46.748;8.102;2022-10-16T00:08:47;94136.00;;;18.20
15575;BMP180;7888;46.748;8.102;2022-10-16T00:11:24;94138.00;;;18.20
15575;BMP180;7888;46.748;8.102;2022-10-16T00:13:55;94138.00;;;18.20
15575;BMP180;7888;46.748;8.102;2022-10-16T00:16:21;94142.00;;;18.20
15575;BMP180;7888;46.748;8.102;2022-10-16T00:18:48;94131.00;;;18.20
15575;BMP180;7888;46.748;8.102;2022-10-16T00:21:22;94140.00;;;18.20
15575;BMP180;7888;46.748;8.102;2022-10-16T00:23:58;94132.00;;;18.20
15575;BMP180;7888;46.748;8.102;2022-10-16T00:26:27;94135.00;;;18.20
15575;BMP180;7888;46.748;8.102;2022-10-16T00:28:53;94138.00;;;18.20
15575;BMP180;7888;46.748;8.102;2022-10-16T00:31:22;94134.00;;;18.20
15575;BMP180;7888;46.748;8.102;2022-10-16T00:33:49;94133.00;;;18.20
15575;BMP180;7888;46.748;8.102;2022-10-16T00:36:19;94139.00;;;18.20
15575;BMP180;7888;46.748;8.102;2022-10-16T00:38:45;94140.00;;;18.20
15575;BMP180;7888;46.748;8.102;2022-10-16T00:41:16;94135.00;;;18.20
15575;BMP180;7888;46.748;8.102;2022-10-16T00:43:49;94141.00;;;18.20
15575;BMP180;7888;46.748;8.102;2022-10-16T00:46:28;94138.00;;;18.20
15575;BMP180;7888;46.748;8.102;2022-10-16T00:49:17;94143.00;;;18.20
15575;BMP180;7888;46.748;8.102;2022-10-16T00:51:51;94136.00;;;18.20
15575;BMP180;7888;46.748;8.102;2022-10-16T00:54:30;94128.00;;;18.10
15575;BMP180;7888;46.748;8.102;2022-10-16T00:57:04;94135.00;;;18.10
15575;BMP180;7888;46.748;8.102;2022-10-16T00:59:37;94135.00;;;18.10
15575;BMP180;7888;46.748;8.102;2022-10-16T01:02:06;94131.00;;;18.10
15575;BMP180;7888;46.748;8.102;2022-10-16T01:04:38;94141.00;;;18.10
15575;BMP180;7888;46.748;8.102;2022-10-16T01:13:06;94138.00;;;18.10
15575;BMP180;7888;46.748;8.102;2022-10-16T01:16:06;94145.00;;;18.00
15575;BMP180;7888;46.748;8.102;2022-10-16T01:19:16;94155.00;;;18.00
15575;BMP180;7888;46.748;8.102;2022-10-16T01:21:48;94154.00;;;18.00
15575;BMP180;7888;46.748;8.102;2022-10-16T01:24:41;94152.00;;;17.90
15575;BMP180;7888;46.748;8.102;2022-10-16T01:27:26;94140.00;;;17.90
15575;BMP180;7888;46.748;8.102;2022-10-16T01:30:02;94142.00;;;17.90
15575;BMP180;7888;46.748;8.102;2022-10-16T01:32:49;94148.00;;;17.90
15575;BMP180;7888;46.748;8.102;2022-10-16T01:35:34;94150.00;;;17.90
15575;BMP180;7888;46.748;8.102;2022-10-16T01:38:12;94138.00;;;17.80
15575;BMP180;7888;46.748;8.102;2022-10-16T01:40:47;94153.00;;;17.90
15575;BMP180;7888;46.748;8.102;2022-10-16T01:43:22;94156.00;;;17.80
15575;BMP180;7888;46.748;8.102;2022-10-16T01:45:52;94162.00;;;17.80
15575;BMP180;7888;46.748;8.102;2022-10-16T01:48:20;94160.00;;;17.80
15575;BMP180;7888;46.748;8.102;2022-10-16T01:51:14;94152.00;;;17.80
15575;BMP180;7888;46.748;8.102;2022-10-16T01:53:43;94162.00;;;17.80
15575;BMP180;7888;46.748;8.102;2022-10-16T01:56:15;94158.00;;;17.80
15575;BMP180;7888;46.748;8.102;2022-10-16T01:58:48;94153.00;;;17.80
15575;BMP180;7888;46.748;8.102;2022-10-16T02:01:18;94162.00;;;17.80
15575;BMP180;7888;46.748;8.102;2022-10-16T02:03:49;94156.00;;;17.80
15575;BMP180;7888;46.748;8.102;2022-10-16T02:06:16;94153.00;;;17.80
15575;BMP180;7888;46.748;8.102;2022-10-16T02:08:42;94154.00;;;17.80
15575;BMP180;7888;46.748;8.102;2022-10-16T02:11:10;94166.00;;;17.70
15575;BMP180;7888;46.748;8.102;2022-10-16T02:13:49;94160.00;;;17.70
15575;BMP180;7888;46.748;8.102;2022-10-16T02:16:16;94160.00;;;17.70
15575;BMP180;7888;46.748;8.102;2022-10-16T02:18:43;94177.00;;;17.70
15575;BMP180;7888;46.748;8.102;2022-10-16T02:26:59;94157.00;;;17.60
15575;BMP180;7888;46.748;8.102;2022-10-16T02:29:27;94154.00;;;17.60
15575;BMP180;7888;46.748;8.102;2022-10-16T02:32:03;94172.00;;;17.50
15575;BMP180;7888;46.748;8.102;2022-10-16T02:34:32;94171.00;;;17.50
15575;BMP180;7888;46.748;8.102;2022-10-16T02:37:01;94172.00;;;17.50
15575;BMP180;7888;46.748;8.102;2022-10-16T02:39:29;94178.00;;;17.50
15575;BMP180;7888;46.748;8.102;2022-10-16T02:41:55;94165.00;;;17.50
15575;BMP180;7888;46.748;8.102;2022-10-16T02:44:21;94180.00;;;17.50
15575;BMP180;7888;46.748;8.102;2022-10-16T02:46:47;94184.00;;;17.50
15575;BMP180;7888;46.748;8.102;2022-10-16T02:49:13;94177.00;;;17.40
15575;BMP180;7888;46.748;8.102;2022-10-16T02:51:39;94166.00;;;17.40
15575;BMP180;7888;46.748;8.102;2022-10-16T02:54:05;94161.00;;;17.40
15575;BMP180;7888;46.748;8.102;2022-10-16T02:56:30;94158.00;;;17.40
15575;BMP180;7888;46.748;8.102;2022-10-16T02:58:57;94171.00;;;17.30
15575;BMP180;7888;46.748;8.102;2022-10-16T03:01:23;94165.00;;;17.30
15575;BMP180;7888;46.748;8.102;2022-10-16T03:03:49;94165.00;;;17.30
15575;BMP180;7888;46.748;8.102;2022-10-16T03:06:16;94173.00;;;17.30
15575;BMP180;7888;46.748;8.102;2022-10-16T03:08:42;94165.00;;;17.30
15575;BMP180;7888;46.748;8.102;2022-10-16T03:11:07;94159.00;;;17.30
15575;BMP180;7888;46.748;8.102;2022-10-16T03:13:33;94160.00;;;17.20
15575;BMP180;7888;46.748;8.102;2022-10-16T03:15:59;94165.00;;;17.20
15575;BMP180;7888;46.748;8.102;2022-10-16T03:18:25;94156.00;;;17.20
15575;BMP180;7888;46.748;8.102;2022-10-16T03:20:51;94162.00;;;17.20
15575;BMP180;7888;46.748;8.102;2022-10-16T03:23:17;94155.00;;;17.20
15575;BMP180;7888;46.748;8.102;2022-10-16T03:25:42;94154.00;;;17.10
15575;BMP180;7888;46.748;8.102;2022-10-16T03:28:08;94150.00;;;17.10
15575;BMP180;7888;46.748;8.102;2022-10-16T03:30:34;94159.00;;;17.10
15575;BMP180;7888;46.748;8.102;2022-10-16T03:33:00;94158.00;;;17.10
15575;BMP180;7888;46.748;8.102;2022-10-16T03:35:26;94159.00;;;17.10
15575;BMP180;7888;46.748;8.102;2022-10-16T03:37:52;94165.00;;;17.10
15575;BMP180;7888;46.748;8.102;2022-10-16T03:40:18;94161.00;;;17.10
15575;BMP180;7888;46.748;8.102;2022-10-16T03:42:44;94176.00;;;17.10
15575;BMP180;7888;46.748;8.102;2022-10-16T03:45:11;94176.00;;;17.10
15575;BMP180;7888;46.748;8.102;2022-10-16T03:47:37;94162.00;;;17.10
15575;BMP180;7888;46.748;8.102;2022-10-16T03:50:04;94170.00;;;17.10
15575;BMP180;7888;46.748;8.102;2022-10-16T03:52:30;94165.00;;;17.10
15575;BMP180;7888;46.748;8.102;2022-10-16T03:54:57;94172.00;;;17.10
15575;BMP180;7888;46.748;8.102;2022-10-16T03:57:23;94176.00;;;17.10
15575;BMP180;7888;46.748;8.102;2022-10-16T03:59:49;94173.00;;;17.10
15575;BMP180;7888;46.748;8.102;2022-10-16T04:02:15;94171.00;;;17.10
15575;BMP180;7888;46.748;8.102;2022-10-16T04:04:41;94168.00;;;17.10
15575;BMP180;7888;46.748;8.102;2022-10-16T04:07:06;94164.00;;;17.10
15575;BMP180;7888;46.748;8.102;2022-10-16T04:09:32;94176.00;;;17.10
15575;BMP180;7888;46.748;8.102;2022-10-16T04:11:58;94163.00;;;17.10
15575;BMP180;7888;46.748;8.102;2022-10-16T04:14:24;94161.00;;;17.10
15575;BMP180;7888;46.748;8.102;2022-10-16T04:16:50;94168.00;;;17.10
15575;BMP180;7888;46.748;8.102;2022-10-16T04:19:16;94171.00;;;17.10
15575;BMP180;7888;46.748;8.102;2022-10-16T04:21:41;94176.00;;;17.20
15575;BMP180;7888;46.748;8.102;2022-10-16T04:24:07;94168.00;;;17.20
15575;BMP180;7888;46.748;8.102;2022-10-16T04:26:33;94183.00;;;17.20
15575;BMP180;7888;46.748;8.102;2022-10-16T04:28:59;94173.00;;;17.20
15575;BMP180;7888;46.748;8.102;2022-10-16T04:31:25;94191.00;;;17.20
15575;BMP180;7888;46.748;8.102;2022-10-16T04:33:51;94192.00;;;17.20
15575;BMP180;7888;46.748;8.102;2022-10-16T04:36:16;94191.00;;;17.20
15575;BMP180;7888;46.748;8.102;2022-10-16T04:38:42;94179.00;;;17.30
15575;BMP180;7888;46.748;8.102;2022-10-16T04:41:08;94180.00;;;17.30
15575;BMP180;7888;46.748;8.102;2022-10-16T04:43:34;94188.00;;;17.30
15575;BMP180;7888;46.748;8.102;2022-10-16T04:46:00;94186.00;;;17.30
15575;BMP180;7888;46.748;8.102;2022-10-16T04:48:27;94187.00;;;17.30
15575;BMP180;7888;46.748;8.102;2022-10-16T04:50:53;94193.00;;;17.30
15575;BMP180;7888;46.748;8.102;2022-10-16T04:53:19;94194.00;;;17.40
15575;BMP180;7888;46.748;8.102;2022-10-16T04:55:45;94201.00;;;17.40
15575;BMP180;7888;46.748;8.102;2022-10-16T04:58:11;94211.00;;;17.40
15575;BMP180;7888;46.748;8.102;2022-10-16T05:00:37;94214.00;;;17.40
15575;BMP180;7888;46.748;8.102;2022-10-16T05:03:04;94213.00;;;17.40
15575;BMP180;7888;46.748;8.102;2022-10-16T05:05:33;94214.00;;;17.40
15575;BMP180;7888;46.748;8.102;2022-10-16T05:07:59;94204.00;;;17.40
15575;BMP180;7888;46.748;8.102;2022-10-16T05:10:25;94214.00;;;17.40
15575;BMP180;7888;46.748;8.102;2022-10-16T05:12:51;94214.00;;;17.40
15575;BMP180;7888;46.748;8.102;2022-10-16T05:15:17;94217.00;;;17.40
15575;BMP180;7888;46.748;8.102;2022-10-16T05:17:44;94217.00;;;17.30
15575;BMP180;7888;46.748;8.102;2022-10-16T05:20:10;94220.00;;;17.40
15575;BMP180;7888;46.748;8.102;2022-10-16T05:22:36;94221.00;;;17.40
15575;BMP180;7888;46.748;8.102;2022-10-16T05:25:02;94204.00;;;17.30
15575;BMP180;7888;46.748;8.102;2022-10-16T05:27:28;94211.00;;;17.30
15575;BMP180;7888;46.748;8.102;2022-10-16T05:29:54;94208.00;;;17.40
15575;BMP180;7888;46.748;8.102;2022-10-16T05:32:20;94210.00;;;17.40
15575;BMP180;7888;46.748;8.102;2022-10-16T05:34:46;94214.00;;;17.40
15575;BMP180;7888;46.748;8.102;2022-10-16T05:37:12;94222.00;;;17.40
15575;BMP180;7888;46.748;8.102;2022-10-16T05:39:39;94229.00;;;17.40
15575;BMP180;7888;46.748;8.102;2022-10-16T05:42:05;94224.00;;;17.40
15575;BMP180;7888;46.748;8.102;2022-10-16T05:44:32;94219.00;;;17.40
15575;BMP180;7888;46.748;8.102;2022-10-16T05:46:58;94220.00;;;17.40
15575;BMP180;7888;46.748;8.102;2022-10-16T05:49:24;94221.00;;;17.30
15575;BMP180;7888;46.748;8.102;2022-10-16T05:51:50;94219.00;;;17.30
15575;BMP180;7888;46.748;8.102;2022-10-16T05:54:16;94218.00;;;17.30
15575;BMP180;7888;46.748;8.102;2022-10-16T05:56:42;94228.00;;;17.30
15575;BMP180;7888;46.748;8.102;2022-10-16T05:59:08;94226.00;;;17.30
15575;BMP180;7888;46.748;8.102;2022-10-16T06:01:34;94236.00;;;17.30
15575;BMP180;7888;46.748;8.102;2022-10-16T06:04:01;94229.00;;;17.30
15575;BMP180;7888;46.748;8.102;2022-10-16T06:06:28;94230.00;;;17.30
15575;BMP180;7888;46.748;8.102;2022-10-16T06:08:56;94236.00;;;17.30
15575;BMP180;7888;46.748;8.102;2022-10-16T06:11:27;94231.00;;;17.20
15575;BMP180;7888;46.748;8.102;2022-10-16T06:13:56;94234.00;;;17.30
15575;BMP180;7888;46.748;8.102;2022-10-16T06:16:24;94240.00;;;17.30
15575;BMP180;7888;46.748;8.102;2022-10-16T06:18:53;94240.00;;;17.30
15575;BMP180;7888;46.748;8.102;2022-10-16T06:21:23;94250.00;;;17.30
15575;BMP180;7888;46.748;8.102;2022-10-16T06:23:51;94254.00;;;17.30
15575;BMP180;7888;46.748;8.102;2022-10-16T06:26:20;94246.00;;;17.30
15575;BMP180;7888;46.748;8.102;2022-10-16T06:28:47;94236.00;;;17.40
15575;BMP180;7888;46.748;8.102;2022-10-16T06:31:14;94248.00;;;17.40
15575;BMP180;7888;46.748;8.102;2022-10-16T06:33:41;94252.00;;;17.40
15575;BMP180;7888;46.748;8.102;2022-10-16T06:36:13;94235.00;;;17.30
15575;BMP180;7888;46.748;8.102;2022-10-16T06:38:40;94237.00;;;17.40
15575;BMP180;7888;46.748;8.102;2022-10-16T06:41:09;94238.00;;;17.40
15575;BMP180;7888;46.748;8.102;2022-10-16T06:43:36;94246.00;;;17.40
15575;BMP180;7888;46.748;8.102;2022-10-16T06:46:04;94254.00;;;17.50
15575;BMP180;7888;46.748;8.102;2022-10-16T06:48:31;94245.00;;;17.50
15575;BMP180;7888;46.748;8.102;2022-10-16T06:51:11;94242.00;;;17.40
15575;BMP180;7888;46.748;8.102;2022-10-16T06:53:45;94261.00;;;17.40
15575;BMP180;7888;46.748;8.102;2022-10-16T06:56:18;94254.00;;;17.50
15575;BMP180;7888;46.748;8.102;2022-10-16T06:58:44;94267.00;;;17.50
15575;BMP180;7888;46.748;8.102;2022-10-16T07:01:12;94258.00;;;17.50
15575;BMP180;7888;46.748;8.102;2022-10-16T07:03:41;94267.00;;;17.50
15575;BMP180;7888;46.748;8.102;2022-10-16T07:06:10;94269.00;;;17.60
15575;BMP180;7888;46.748;8.102;2022-10-16T07:08:39;94274.00;;;17.60
15575;BMP180;7888;46.748;8.102;2022-10-16T07:11:18;94280.00;;;17.60
15575;BMP180;7888;46.748;8.102;2022-10-16T07:13:45;94287.00;;;17.70
15575;BMP180;7888;46.748;8.102;2022-10-16T07:16:19;94290.00;;;17.70
15575;BMP180;7888;46.748;8.102;2022-10-16T07:18:46;94290.00;;;17.70
15575;BMP180;7888;46.748;8.102;2022-10-16T07:21:17;94295.00;;;17.70
15575;BMP180;7888;46.748;8.102;2022-10-16T07:23:43;94296.00;;;17.80
15575;BMP180;7888;46.748;8.102;2022-10-16T07:26:10;94300.00;;;17.90
15575;BMP180;7888;46.748;8.102;2022-10-16T07:28:37;94303.00;;;17.90
15575;BMP180;7888;46.748;8.102;2022-10-16T07:31:07;94307.00;;;18.00
15575;BMP180;7888;46.748;8.102;2022-10-16T07:33:34;94306.00;;;18.10
15575;BMP180;7888;46.748;8.102;2022-10-16T07:36:01;94302.00;;;18.10
15575;BMP180;7888;46.748;8.102;2022-10-16T07:38:27;94303.00;;;18.20
15575;BMP180;7888;46.748;8.102;2022-10-16T07:41:06;94296.00;;;18.20
15575;BMP180;7888;46.748;8.102;2022-10-16T07:43:33;94303.00;;;18.30
15575;BMP180;7888;46.748;8.102;2022-10-16T07:46:00;94309.00;;;18.40
15575;BMP180;7888;46.748;8.102;2022-10-16T07:48:33;94323.00;;;18.40
15575;BMP180;7888;46.748;8.102;2022-10-16T07:51:04;94321.00;;;18.50
15575;BMP180;7888;46.748;8.102;2022-10-16T07:53:32;94323.00;;;18.50
15575;BMP180;7888;46.748;8.102;2022-10-16T07:56:04;94326.00;;;18.50
15575;BMP180;7888;46.748;8.102;2022-10-16T07:58:32;94331.00;;;18.60
15575;BMP180;7888;46.748;8.102;2022-10-16T08:00:59;94324.00;;;18.60
15575;BMP180;7888;46.748;8.102;2022-10-16T08:03:28;94326.00;;;18.70
15575;BMP180;7888;46.748;8.102;2022-10-16T08:05:53;94333.00;;;18.70
15575;BMP180;7888;46.748;8.102;2022-10-16T08:08:20;94335.00;;;18.70
15575;BMP180;7888;46.748;8.102;2022-10-16T08:10:46;94342.00;;;18.80
15575;BMP180;7888;46.748;8.102;2022-10-16T08:13:12;94341.00;;;18.80
15575;BMP180;7888;46.748;8.102;2022-10-16T08:15:44;94348.00;;;18.90
15575;BMP180;7888;46.748;8.102;2022-10-16T08:18:12;94348.00;;;18.90
15575;BMP180;7888;46.748;8.102;2022-10-16T08:20:42;94351.00;;;18.90
15575;BMP180;7888;46.748;8.102;2022-10-16T08:23:11;94352.00;;;18.90
15575;BMP180;7888;46.748;8.102;2022-10-16T08:25:39;94346.00;;;19.00
15575;BMP180;7888;46.748;8.102;2022-10-16T08:28:07;94355.00;;;19.00
15575;BMP180;7888;46.748;8.102;2022-10-16T08:30:34;94354.00;;;19.10
15575;BMP180;7888;46.748;8.102;2022-10-16T08:33:01;94348.00;;;19.20
15575;BMP180;7888;46.748;8.102;2022-10-16T08:35:28;94352.00;;;19.20
15575;BMP180;7888;46.748;8.102;2022-10-16T08:37:54;94358.00;;;19.20
15575;BMP180;7888;46.748;8.102;2022-10-16T08:40:30;94358.00;;;19.20
15575;BMP180;7888;46.748;8.102;2022-10-16T08:43:27;94361.00;;;19.30
15575;BMP180;7888;46.748;8.102;2022-10-16T08:49:00;94366.00;;;19.50
15575;BMP180;7888;46.748;8.102;2022-10-16T08:51:32;94374.00;;;19.50
15575;BMP180;7888;46.748;8.102;2022-10-16T08:56:37;94382.00;;;19.70
15575;BMP180;7888;46.748;8.102;2022-10-16T08:59:10;94373.00;;;19.70
15575;BMP180;7888;46.748;8.102;2022-10-16T09:01:44;94375.00;;;19.80
15575;BMP180;7888;46.748;8.102;2022-10-16T09:06:52;94373.00;;;19.90
15575;BMP180;7888;46.748;8.102;2022-10-16T09:10:00;94382.00;;;19.90
15575;BMP180;7888;46.748;8.102;2022-10-16T09:13:09;94389.00;;;19.90
15575;BMP180;7888;46.748;8.102;2022-10-16T09:15:47;94382.00;;;20.00
15575;BMP180;7888;46.748;8.102;2022-10-16T09:21:25;94383.00;;;20.10
15575;BMP180;7888;46.748;8.102;2022-10-16T09:23:51;94385.00;;;20.30
15575;BMP180;7888;46.748;8.102;2022-10-16T09:26:19;94386.00;;;20.50
15575;BMP180;7888;46.748;8.102;2022-10-16T09:28:47;94398.00;;;20.60
15575;BMP180;7888;46.748;8.102;2022-10-16T09:31:19;94392.00;;;20.70
15575;BMP180;7888;46.748;8.102;2022-10-16T09:33:52;94392.00;;;20.90
15575;BMP180;7888;46.748;8.102;2022-10-16T09:36:21;94393.00;;;21.00
15575;BMP180;7888;46.748;8.102;2022-10-16T09:38:47;94401.00;;;21.10
15575;BMP180;7888;46.748;8.102;2022-10-16T09:41:17;94407.00;;;21.20
15575;BMP180;7888;46.748;8.102;2022-10-16T09:43:56;94410.00;;;21.30
15575;BMP180;7888;46.748;8.102;2022-10-16T09:46:36;94405.00;;;21.40
15575;BMP180;7888;46.748;8.102;2022-10-16T09:51:44;94400.00;;;21.70
15575;BMP180;7888;46.748;8.102;2022-10-16T09:54:21;94399.00;;;21.80
15575;BMP180;7888;46.748;8.102;2022-10-16T09:56:48;94397.00;;;22.00
15575;BMP180;7888;46.748;8.102;2022-10-16T09:59:23;94400.00;;;22.10
15575;BMP180;7888;46.748;8.102;2022-10-16T10:01:54;94399.00;;;22.30
15575;BMP180;7888;46.748;8.102;2022-10-16T10:04:23;94392.00;;;22.40
15575;BMP180;7888;46.748;8.102;2022-10-16T10:06:54;94395.00;;;22.60
15575;BMP180;7888;46.748;8.102;2022-10-16T10:09:37;94392.00;;;22.60
15575;BMP180;7888;46.748;8.102;2022-10-16T10:12:23;94394.00;;;22.80
15575;BMP180;7888;46.748;8.102;2022-10-16T10:15:07;94394.00;;;22.90
15575;BMP180;7888;46.748;8.102;2022-10-16T10:17:33;94393.00;;;23.10
15575;BMP180;7888;46.748;8.102;2022-10-16T10:22:45;94376.00;;;23.30
15575;BMP180;7888;46.748;8.102;2022-10-16T10:28:07;94374.00;;;23.40
15575;BMP180;7888;46.748;8.102;2022-10-16T10:30:41;94375.00;;;23.60
15575;BMP180;7888;46.748;8.102;2022-10-16T10:39:00;94373.00;;;23.80
15575;BMP180;7888;46.748;8.102;2022-10-16T10:44:15;94374.00;;;24.00
15575;BMP180;7888;46.748;8.102;2022-10-16T11:01:59;94345.00;;;24.80
15575;BMP180;7888;46.748;8.102;2022-10-16T11:07:28;94349.00;;;25.30
15575;BMP180;7888;46.748;8.102;2022-10-16T11:10:16;94347.00;;;25.50
15575;BMP180;7888;46.748;8.102;2022-10-16T11:12:49;94347.00;;;25.80
15575;BMP180;7888;46.748;8.102;2022-10-16T11:15:37;94339.00;;;26.00
15575;BMP180;7888;46.748;8.102;2022-10-16T11:18:22;94345.00;;;26.20
15575;BMP180;7888;46.748;8.102;2022-10-16T11:20:57;94349.00;;;26.50
15575;BMP180;7888;46.748;8.102;2022-10-16T11:24:01;94335.00;;;26.70
15575;BMP180;7888;46.748;8.102;2022-10-16T11:26:35;94334.00;;;27.00
15575;BMP180;7888;46.748;8.102;2022-10-16T11:29:12;94335.00;;;27.30
15575;BMP180;7888;46.748;8.102;2022-10-16T11:31:50;94321.00;;;27.50
15575;BMP180;7888;46.748;8.102;2022-10-16T11:34:36;94328.00;;;27.70
15575;BMP180;7888;46.748;8.102;2022-10-16T11:37:14;94327.00;;;28.00
15575;BMP180;7888;46.748;8.102;2022-10-16T11:39:44;94320.00;;;28.20
15575;BMP180;7888;46.748;8.102;2022-10-16T11:42:36;94322.00;;;28.50
15575;BMP180;7888;46.748;8.102;2022-10-16T11:45:36;94324.00;;;28.70
15575;BMP180;7888;46.748;8.102;2022-10-16T11:50:52;94313.00;;;29.10
15575;BMP180;7888;46.748;8.102;2022-10-16T11:53:51;94317.00;;;29.20
15575;BMP180;7888;46.748;8.102;2022-10-16T11:56:20;94317.00;;;29.40
15575;BMP180;7888;46.748;8.102;2022-10-16T11:59:00;94318.00;;;29.50
15575;BMP180;7888;46.748;8.102;2022-10-16T12:01:47;94323.00;;;29.50
15575;BMP180;7888;46.748;8.102;2022-10-16T12:05:01;94328.00;;;29.40
15575;BMP180;7888;46.748;8.102;2022-10-16T12:07:44;94326.00;;;29.30
15575;BMP180;7888;46.748;8.102;2022-10-16T12:10:28;94327.00;;;29.40
15575;BMP180;7888;46.748;8.102;2022-10-16T12:12:54;94327.00;;;29.50
15575;BMP180;7888;46.748;8.102;2022-10-16T12:15:29;94329.00;;;29.40
15575;BMP180;7888;46.748;8.102;2022-10-16T12:17:56;94336.00;;;29.40
15575;BMP180;7888;46.748;8.102;2022-10-16T12:20:32;94335.00;;;29.30
15575;BMP180;7888;46.748;8.102;2022-10-16T12:23:06;94340.00;;;29.50
15575;BMP180;7888;46.748;8.102;2022-10-16T12:25:38;94333.00;;;29.70
15575;BMP180;7888;46.748;8.102;2022-10-16T12:28:22;94335.00;;;29.80
15575;BMP180;7888;46.748;8.102;2022-10-16T12:31:14;94336.00;;;29.80
15575;BMP180;7888;46.748;8.102;2022-10-16T12:34:03;94342.00;;;30.00
15575;BMP180;7888;46.748;8.102;2022-10-16T12:36:33;94335.00;;;30.20
15575;BMP180;7888;46.748;8.102;2022-10-16T12:39:01;94339.00;;;30.30
15575;BMP180;7888;46.748;8.102;2022-10-16T12:41:35;94334.00;;;30.40
15575;BMP180;7888;46.748;8.102;2022-10-16T12:44:22;94338.00;;;30.50
15575;BMP180;7888;46.748;8.102;2022-10-16T12:46:49;94331.00;;;30.70
15575;BMP180;7888;46.748;8.102;2022-10-16T12:51:55;94333.00;;;30.80
15575;BMP180;7888;46.748;8.102;2022-10-16T12:54:29;94337.00;;;30.80
15575;BMP180;7888;46.748;8.102;2022-10-16T12:57:42;94334.00;;;30.90
15575;BMP180;7888;46.748;8.102;2022-10-16T13:00:23;94337.00;;;31.10
15575;BMP180;7888;46.748;8.102;2022-10-16T13:05:43;94345.00;;;31.20
15575;BMP180;7888;46.748;8.102;2022-10-16T13:11:48;94359.00;;;31.30
15575;BMP180;7888;46.748;8.102;2022-10-16T13:20:16;94368.00;;;31.40
15575;BMP180;7888;46.748;8.102;2022-10-16T13:28:30;94375.00;;;31.70
15575;BMP180;7888;46.748;8.102;2022-10-16T13:30:59;94371.00;;;31.80
15575;BMP180;7888;46.748;8.102;2022-10-16T13:33:41;94365.00;;;31.80
15575;BMP180;7888;46.748;8.102;2022-10-16T13:36:49;94370.00;;;31.80
15575;BMP180;7888;46.748;8.102;2022-10-16T13:39:20;94373.00;;;32.00
15575;BMP180;7888;46.748;8.102;2022-10-16T13:42:11;94369.00;;;31.90
15575;BMP180;7888;46.748;8.102;2022-10-16T13:44:50;94370.00;;;32.10
15575;BMP180;7888;46.748;8.102;2022-10-16T13:47:27;94380.00;;;32.20
15575;BMP180;7888;46.748;8.102;2022-10-16T13:50:17;94383.00;;;32.20
15575;BMP180;7888;46.748;8.102;2022-10-16T13:52:43;94375.00;;;32.30
15575;BMP180;7888;46.748;8.102;2022-10-16T13:55:18;94373.00;;;32.30
15575;BMP180;7888;46.748;8.102;2022-10-16T13:57:44;94379.00;;;32.40
15575;BMP180;7888;46.748;8.102;2022-10-16T14:00:24;94384.00;;;32.40
15575;BMP180;7888;46.748;8.102;2022-10-16T14:03:12;94388.00;;;32.50
15575;BMP180;7888;46.748;8.102;2022-10-16T14:06:03;94389.00;;;32.50
15575;BMP180;7888;46.748;8.102;2022-10-16T14:08:31;94392.00;;;32.70
15575;BMP180;7888;46.748;8.102;2022-10-16T14:11:00;94386.00;;;32.80
15575;BMP180;7888;46.748;8.102;2022-10-16T14:13:43;94380.00;;;32.80
15575;BMP180;7888;46.748;8.102;2022-10-16T14:16:18;94381.00;;;32.90
15575;BMP180;7888;46.748;8.102;2022-10-16T14:19:00;94393.00;;;32.90
15575;BMP180;7888;46.748;8.102;2022-10-16T14:21:27;94392.00;;;33.00
15575;BMP180;7888;46.748;8.102;2022-10-16T14:23:54;94389.00;;;33.00
15575;BMP180;7888;46.748;8.102;2022-10-16T14:26:26;94386.00;;;33.10
15575;BMP180;7888;46.748;8.102;2022-10-16T14:29:18;94380.00;;;33.00
15575;BMP180;7888;46.748;8.102;2022-10-16T14:32:05;94389.00;;;33.00
15575;BMP180;7888;46.748;8.102;2022-10-16T14:34:36;94390.00;;;33.10
15575;BMP180;7888;46.748;8.102;2022-10-16T14:37:28;94386.00;;;33.00
15575;BMP180;7888;46.748;8.102;2022-10-16T14:39:55;94393.00;;;33.10
15575;BMP180;7888;46.748;8.102;2022-10-16T14:42:25;94393.00;;;33.10
15575;BMP180;7888;46.748;8.102;2022-10-16T14:44:53;94387.00;;;33.20
15575;BMP180;7888;46.748;8.102;2022-10-16T14:47:23;94397.00;;;33.10
15575;BMP180;7888;46.748;8.102;2022-10-16T14:49:52;94402.00;;;33.10
15575;BMP180;7888;46.748;8.102;2022-10-16T14:52:21;94401.00;;;33.00
15575;BMP180;7888;46.748;8.102;2022-10-16T14:54:51;94399.00;;;32.90
15575;BMP180;7888;46.748;8.102;2022-10-16T14:57:24;94403.00;;;32.80
15575;BMP180;7888;46.748;8.102;2022-10-16T14:59:52;94404.00;;;32.70
15575;BMP180;7888;46.748;8.102;2022-10-16T15:02:30;94401.00;;;32.60
15575;BMP180;7888;46.748;8.102;2022-10-16T15:04:58;94402.00;;;32.50
15575;BMP180;7888;46.748;8.102;2022-10-16T15:07:27;94405.00;;;32.40
15575;BMP180;7888;46.748;8.102;2022-10-16T15:09:53;94405.00;;;32.20
15575;BMP180;7888;46.748;8.102;2022-10-16T15:12:19;94406.00;;;32.10
15575;BMP180;7888;46.748;8.102;2022-10-16T15:14:45;94417.00;;;32.00
15575;BMP180;7888;46.748;8.102;2022-10-16T15:17:11;94417.00;;;31.90
15575;BMP180;7888;46.748;8.102;2022-10-16T15:19:37;94420.00;;;31.80
15575;BMP180;7888;46.748;8.102;2022-10-16T15:22:03;94422.00;;;31.80
15575;BMP180;7888;46.748;8.102;2022-10-16T15:24:29;94424.00;;;31.70
15575;BMP180;7888;46.748;8.102;2022-10-16T15:26:55;94423.00;;;31.60
15575;BMP180;7888;46.748;8.102;2022-10-16T15:29:21;94424.00;;;31.60
15575;BMP180;7888;46.748;8.102;2022-10-16T15:31:47;94434.00;;;31.50
15575;BMP180;7888;46.748;8.102;2022-10-16T15:34:14;94434.00;;;31.50
15575;BMP180;7888;46.748;8.102;2022-10-16T15:36:41;94424.00;;;31.40
15575;BMP180;7888;46.748;8.102;2022-10-16T15:39:17;94435.00;;;31.30
15575;BMP180;7888;46.748;8.102;2022-10-16T15:41:45;94451.00;;;31.30
15575;BMP180;7888;46.748;8.102;2022-10-16T15:44:17;94447.00;;;31.20
15575;BMP180;7888;46.748;8.102;2022-10-16T15:46:43;94449.00;;;31.10
15575;BMP180;7888;46.748;8.102;2022-10-16T15:49:11;94449.00;;;30.90
15575;BMP180;7888;46.748;8.102;2022-10-16T15:51:41;94461.00;;;30.80
15575;BMP180;7888;46.748;8.102;2022-10-16T15:54:08;94451.00;;;30.70
15575;BMP180;7888;46.748;8.102;2022-10-16T15:56:34;94448.00;;;30.60
15575;BMP180;7888;46.748;8.102;2022-10-16T15:59:03;94462.00;;;30.50
15575;BMP180;7888;46.748;8.102;2022-10-16T16:01:33;94455.00;;;30.40
15575;BMP180;7888;46.748;8.102;2022-10-16T16:04:00;94457.00;;;30.30
15575;BMP180;7888;46.748;8.102;2022-10-16T16:06:26;94470.00;;;30.20
15575;BMP180;7888;46.748;8.102;2022-10-16T16:08:52;94467.00;;;30.10